Time;durP1;ratioP1;P1;durP2;ratioP2;P2;SDS_P1;SDS_P2;PMS_P1;PMS_P2;Temp;Humidity;BMP_temperature;BMP_pressure;BME280_temperature;BME280_humidity;BME280_pressure;Samples;Min_cycle;Max_cycle;Signal;HPM_P1;HPM_P2
2022/07/01 00:01:25;;;;;;;11.60;10.30;;;;;;;24.18;61.67;100053.52;111656;1241;24425;-76
2022/07/01 00:03:54;;;;;;;11.70;10.10;;;;;;;24.15;61.42;100048.72;111631;1244;22071;-76
2022/07/01 00:06:23;;;;;;;17.30;11.10;;;;;;;24.11;61.56;100052.88;111624;1244;21942;-76
2022/07/01 00:08:52;;;;;;;14.10;9.60;;;;;;;24.06;61.77;100051.45;111413;1241;21957;-75
2022/07/01 00:11:21;;;;;;;12.70;10.70;;;;;;;24.01;62.09;100049.80;111666;1242;23584;-75
2022/07/01 00:13:50;;;;;;;13.90;10.50;;;;;;;23.98;62.40;100048.23;111698;1241;21965;-75
2022/07/01 00:16:19;;;;;;;14.40;10.50;;;;;;;23.95;62.53;100048.32;111654;1241;22326;-74
2022/07/01 00:18:48;;;;;;;13.30;10.90;;;;;;;23.92;62.65;100044.20;111639;1241;21997;-74
2022/07/01 00:21:17;;;;;;;12.30;11.00;;;;;;;23.89;62.85;100047.33;111628;1242;22733;-75
2022/07/01 00:23:46;;;;;;;11.70;10.00;;;;;;;23.87;63.03;100050.23;111134;1247;22572;-74
2022/07/01 00:26:15;;;;;;;14.70;10.30;;;;;;;23.85;63.23;100049.73;111025;1247;22717;-75
2022/07/01 00:28:44;;;;;;;11.20;9.60;;;;;;;23.83;63.32;100051.77;110979;1248;22941;-75
2022/07/01 00:31:13;;;;;;;15.40;10.70;;;;;;;23.80;63.22;100050.15;111259;1247;22076;-76
2022/07/01 00:33:43;;;;;;;13.30;10.40;;;;;;;23.77;63.21;100047.48;111021;1247;24261;-76
2022/07/01 00:36:12;;;;;;;14.20;10.90;;;;;;;23.76;63.39;100046.67;111017;1247;23655;-77
2022/07/01 00:38:40;;;;;;;18.70;10.80;;;;;;;23.75;63.49;100048.88;111258;1247;22096;-76
2022/07/01 00:41:09;;;;;;;12.10;10.90;;;;;;;23.74;63.62;100046.77;111403;1244;21942;-77
2022/07/01 00:43:39;;;;;;;10.70;9.70;;;;;;;23.74;63.69;100047.73;111925;1241;24348;-75
2022/07/01 00:46:25;;;;;;;14.10;11.80;;;;;;;23.70;63.49;100047.73;111624;1241;23824;-76
2022/07/01 00:49:01;;;;;;;14.70;12.60;;;;;;;23.68;63.58;100047.31;111583;1241;22430;-75
2022/07/01 00:51:30;;;;;;;14.60;12.80;;;;;;;23.64;63.60;100049.28;111414;1241;23564;-77
2022/07/01 00:54:01;;;;;;;23.40;14.50;;;;;;;23.61;63.53;100050.02;111915;1241;21985;-76
2022/07/01 00:56:31;;;;;;;17.30;14.40;;;;;;;23.57;63.49;100050.42;111159;1251;22065;-76
2022/07/01 00:59:00;;;;;;;20.50;14.60;;;;;;;23.51;63.57;100046.56;111066;1249;21934;-77
2022/07/01 01:01:29;;;;;;;15.80;13.10;;;;;;;23.45;63.55;100048.48;110568;1254;23664;-77
2022/07/01 01:04:01;;;;;;;14.40;11.50;;;;;;;23.41;63.78;100051.14;110605;1254;22005;-76
2022/07/01 01:06:31;;;;;;;11.20;10.10;;;;;;;23.39;63.77;100051.88;110589;1254;21961;-76
2022/07/01 01:09:02;;;;;;;11.30;10.20;;;;;;;23.37;63.71;100054.29;110665;1254;22012;-76
2022/07/01 01:11:32;;;;;;;11.90;9.80;;;;;;;23.37;63.81;100050.63;110678;1254;21957;-76
2022/07/01 01:14:01;;;;;;;11.20;9.30;;;;;;;23.36;63.48;100046.73;110708;1253;21962;-76
2022/07/01 01:16:30;;;;;;;9.80;8.80;;;;;;;23.36;63.40;100043.61;110452;1257;22304;-76
2022/07/01 01:18:59;;;;;;;9.60;7.80;;;;;;;23.38;63.24;100038.02;110416;1253;22026;-76
2022/07/01 01:21:28;;;;;;;13.20;8.70;;;;;;;23.37;62.89;100038.32;110782;1250;21965;-77
2022/07/01 01:23:58;;;;;;;9.40;7.20;;;;;;;23.35;62.62;100034.71;110953;1250;21952;-77
2022/07/01 01:26:28;;;;;;;10.10;8.10;;;;;;;23.32;62.53;100032.42;111014;1248;23745;-76
2022/07/01 01:28:57;;;;;;;10.80;8.30;;;;;;;23.27;62.47;100031.15;111065;1247;21960;-76
2022/07/01 01:31:35;;;;;;;12.40;8.60;;;;;;;23.24;62.32;100031.79;110870;1251;22184;-75
2022/07/01 01:34:04;;;;;;;11.20;9.10;;;;;;;23.20;62.34;100030.08;110997;1244;21946;-76
2022/07/01 01:36:34;;;;;;;8.80;7.60;;;;;;;23.17;62.31;100029.15;111656;1244;24268;-77
2022/07/01 01:39:16;;;;;;;10.60;7.30;;;;;;;23.16;62.41;100026.02;111412;1244;21975;-76
2022/07/01 01:41:45;;;;;;;10.10;7.40;;;;;;;23.14;62.38;100027.02;111383;1244;22023;-76
2022/07/01 01:44:15;;;;;;;11.40;9.20;;;;;;;23.15;62.55;100026.28;111250;1244;22419;-77
2022/07/01 01:46:49;;;;;;;13.40;7.80;;;;;;;23.16;62.74;100021.60;111629;1244;21959;-77
2022/07/01 01:49:19;;;;;;;11.80;7.60;;;;;;;23.17;62.63;100027.26;110850;1251;22875;-77
2022/07/01 01:51:48;;;;;;;11.80;8.00;;;;;;;23.15;62.62;100028.05;111049;1251;23207;-75
2022/07/01 01:54:17;;;;;;;10.10;8.10;;;;;;;23.13;62.86;100026.97;110915;1251;22825;-77
2022/07/01 01:56:46;;;;;;;13.80;8.80;;;;;;;23.12;62.80;100025.13;110941;1250;23727;-78
2022/07/01 01:59:15;;;;;;;21.30;9.70;;;;;;;23.11;62.77;100023.44;110903;1250;23692;-76
2022/07/01 02:01:47;;;;;;;11.70;8.90;;;;;;;23.11;62.87;100021.94;111041;1248;21955;-76
2022/07/01 02:04:16;;;;;;;14.30;8.70;;;;;;;23.09;63.04;100018.15;111153;1247;21952;-75
2022/07/01 02:06:46;;;;;;;15.70;8.30;;;;;;;23.05;63.11;100017.20;111084;1249;22788;-77
2022/07/01 02:09:25;;;;;;;12.20;8.40;;;;;;;23.02;63.58;100015.08;110968;1249;23760;-78
2022/07/01 02:11:57;;;;;;;9.80;8.70;;;;;;;23.02;63.68;100017.95;111049;1247;21960;-79
2022/07/01 02:14:26;;;;;;;;;;;;;;;23.00;63.78;100017.06;111367;1241;23002;-79
2022/07/01 02:17:00;;;;;;;13.70;9.50;;;;;;;22.90;64.06;100020.41;111510;1242;21949;-79
2022/07/01 02:19:29;;;;;;;13.50;9.40;;;;;;;22.87;64.24;100021.30;111434;1241;21940;-79
2022/07/01 02:21:58;;;;;;;13.20;9.50;;;;;;;22.90;64.24;100020.84;111705;1241;23759;-79
2022/07/01 02:24:27;;;;;;;15.40;8.50;;;;;;;22.91;64.39;100021.77;111383;1241;21949;-78
2022/07/01 02:26:56;;;;;;;15.80;9.60;;;;;;;22.90;64.37;100022.08;111594;1241;23023;-78
2022/07/01 02:29:25;;;;;;;15.20;9.00;;;;;;;22.90;64.68;100025.79;111608;1242;22308;-78
2022/07/01 02:31:54;;;;;;;15.60;9.30;;;;;;;22.89;64.83;100028.46;111440;1244;21947;-79
2022/07/01 02:34:23;;;;;;;10.70;8.50;;;;;;;22.89;64.94;100031.06;111467;1241;21990;-79
2022/07/01 02:36:55;;;;;;;14.60;9.90;;;;;;;22.89;64.88;100036.23;111602;1242;21946;-78
2022/07/01 02:39:24;;;;;;;;;;;;;;;22.88;65.05;100041.29;111937;1241;21934;-78
2022/07/01 02:44:40;;;;;;;14.30;10.40;;;;;;;22.76;65.44;100040.75;111891;1239;21949;-78
2022/07/01 02:47:09;;;;;;;18.00;10.50;;;;;;;22.78;65.40;100039.96;111510;1241;23686;-78
2022/07/01 02:49:39;;;;;;;14.20;9.70;;;;;;;22.78;65.30;100036.51;111481;1241;22046;-79
2022/07/01 02:52:08;;;;;;;14.70;10.00;;;;;;;22.79;65.34;100034.20;111720;1241;21999;-79
2022/07/01 02:54:37;;;;;;;13.90;10.70;;;;;;;22.81;65.56;100033.95;111591;1241;21944;-79
2022/07/01 02:57:07;;;;;;;18.60;10.10;;;;;;;22.82;65.35;100032.73;111495;1241;21995;-78
2022/07/01 02:59:37;;;;;;;19.50;10.80;;;;;;;22.84;65.19;100032.36;111409;1242;21922;-78
2022/07/01 03:02:06;;;;;;;20.70;11.50;;;;;;;22.87;65.08;100034.33;110956;1250;23659;-79
2022/07/01 03:04:35;;;;;;;19.00;9.80;;;;;;;22.90;65.16;100037.95;110839;1251;22879;-78
2022/07/01 03:07:05;;;;;;;16.20;9.90;;;;;;;22.95;65.23;100036.09;110599;1254;23764;-79
2022/07/01 03:09:34;;;;;;;15.20;9.80;;;;;;;23.02;65.05;100039.50;110734;1254;21955;-79
2022/07/01 03:12:24;;;;;;;19.40;10.10;;;;;;;23.07;64.95;100042.66;110552;1254;21980;-79
2022/07/01 03:14:57;;;;;;;15.40;9.50;;;;;;;23.12;64.74;100042.15;110681;1253;23677;-79
2022/07/01 03:17:32;;;;;;;20.60;9.60;;;;;;;23.16;64.64;100042.61;110378;1254;22066;-79
2022/07/01 03:20:10;;;;;;;14.60;8.80;;;;;;;23.20;64.43;100041.83;110452;1251;22970;-78
2022/07/01 03:22:42;;;;;;;15.80;8.50;;;;;;;23.27;64.28;100041.77;110206;1257;22053;-78
2022/07/01 03:25:11;;;;;;;;;;;;;;;23.34;64.20;100043.16;110279;1257;23136;-78
2022/07/01 03:27:45;;;;;;;11.70;8.20;;;;;;;23.32;64.15;100042.34;110509;1257;23577;-78
2022/07/01 03:30:15;;;;;;;17.20;8.80;;;;;;;23.35;63.76;100042.95;110504;1254;21962;-78
2022/07/01 03:32:44;;;;;;;18.60;9.50;;;;;;;23.39;63.38;100040.51;110443;1257;22085;-79
2022/07/01 03:38:03;;;;;;;17.10;9.40;;;;;;;23.39;62.64;100035.70;110183;1260;22107;-79
2022/07/01 03:40:32;;;;;;;16.40;7.70;;;;;;;23.36;62.34;100031.64;110131;1257;23709;-78
2022/07/01 03:43:02;;;;;;;17.10;7.90;;;;;;;23.34;62.19;100032.34;110498;1254;22753;-79
2022/07/01 03:45:32;;;;;;;11.40;7.80;;;;;;;23.34;62.14;100029.52;110648;1253;21955;-79
2022/07/01 03:48:02;;;;;;;12.10;7.70;;;;;;;23.34;62.11;100027.64;110611;1254;22417;-79
2022/07/01 03:50:31;;;;;;;12.50;8.50;;;;;;;23.34;62.14;100023.05;110778;1248;22991;-79
2022/07/01 03:55:48;;;;;;;15.90;7.70;;;;;;;23.34;61.79;100025.92;111305;1245;23029;-78
2022/07/01 03:58:17;;;;;;;20.00;9.80;;;;;;;23.31;61.99;100022.39;110653;1251;21962;-78
2022/07/01 04:00:46;;;;;;;18.00;7.80;;;;;;;23.34;61.86;100020.36;110842;1250;22960;-78
2022/07/01 04:03:21;;;;;;;13.00;8.30;;;;;;;23.35;61.93;100023.72;110920;1251;22948;-77
2022/07/01 04:05:57;;;;;;;14.70;8.60;;;;;;;23.37;61.82;100021.52;110796;1250;23686;-78
2022/07/01 04:08:35;;;;;;;16.10;8.80;;;;;;;23.36;61.59;100024.15;110621;1251;22734;-79
2022/07/01 04:11:07;;;;;;;15.30;7.90;;;;;;;23.37;61.69;100028.46;110609;1251;22880;-77
2022/07/01 04:13:49;;;;;;;17.70;8.80;;;;;;;23.37;61.60;100031.75;110762;1253;23581;-78
2022/07/01 04:16:28;;;;;;;14.10;8.70;;;;;;;23.39;61.57;100032.53;110711;1251;23027;-79
2022/07/01 04:18:59;;;;;;;12.90;7.20;;;;;;;23.44;61.45;100033.96;111001;1247;21966;-79
2022/07/01 04:24:19;;;;;;;13.10;8.60;;;;;;;23.55;61.22;100035.00;110985;1247;21969;-78
2022/07/01 04:26:52;;;;;;;18.50;8.80;;;;;;;23.64;61.21;100040.44;111106;1248;23124;-79
2022/07/01 04:29:21;;;;;;;15.70;9.10;;;;;;;23.72;61.08;100040.02;111126;1248;21964;-78
2022/07/01 04:31:50;;;;;;;16.60;7.40;;;;;;;23.78;60.39;100039.84;110623;1251;22256;-78
2022/07/01 04:34:19;;;;;;;15.00;7.50;;;;;;;23.81;60.41;100034.73;110573;1254;21968;-78
2022/07/01 04:36:51;;;;;;;14.00;7.60;;;;;;;23.85;60.09;100033.06;110767;1251;21950;-79
2022/07/01 04:39:23;;;;;;;11.20;7.90;;;;;;;23.90;59.98;100036.00;110494;1255;22340;-78
2022/07/01 04:42:01;;;;;;;12.10;7.40;;;;;;;23.94;59.96;100038.45;110363;1255;22698;-78
2022/07/01 04:44:36;;;;;;;9.40;7.70;;;;;;;24.02;60.03;100039.77;110258;1256;21972;-78
2022/07/01 04:47:14;;;;;;;13.30;8.00;;;;;;;24.10;59.89;100037.21;110313;1258;22915;-79
2022/07/01 04:49:43;;;;;;;19.30;10.00;;;;;;;24.17;59.71;100039.49;110063;1254;23040;-79
2022/07/01 04:52:12;;;;;;;13.30;8.20;;;;;;;24.23;59.47;100037.73;110737;1254;21955;-79
2022/07/01 04:54:43;;;;;;;10.40;8.20;;;;;;;24.30;59.42;100037.64;110827;1251;22035;-79
2022/07/01 04:57:14;;;;;;;13.10;8.60;;;;;;;24.38;59.37;100038.05;110142;1253;23812;-79
2022/07/01 04:59:43;;;;;;;16.50;8.70;;;;;;;24.46;58.95;100039.82;110837;1253;22188;-78
2022/07/01 05:02:14;;;;;;;14.50;9.50;;;;;;;24.49;58.86;100034.54;110868;1251;23081;-78
2022/07/01 05:04:43;;;;;;;12.60;8.60;;;;;;;24.60;59.13;100035.58;110911;1249;23736;-79
2022/07/01 05:07:27;;;;;;;15.00;8.90;;;;;;;24.74;58.63;100035.64;110934;1248;23641;-79
2022/07/01 05:10:01;;;;;;;14.40;8.10;;;;;;;24.89;58.55;100030.52;111093;1247;22775;-79
2022/07/01 05:12:32;;;;;;;13.90;7.80;;;;;;;25.04;58.44;100032.02;110951;1250;21959;-79
2022/07/01 05:15:03;;;;;;;14.20;8.40;;;;;;;25.18;58.25;100033.00;111112;1242;22794;-77
2022/07/01 05:23:08;;;;;;;11.10;8.60;;;;;;;25.54;57.30;100024.77;111120;1247;21964;-79
2022/07/01 05:25:38;;;;;;;21.50;9.90;;;;;;;25.66;56.61;100021.00;111085;1247;22011;-77
2022/07/01 05:28:07;;;;;;;13.30;8.60;;;;;;;25.78;56.45;100025.37;110998;1247;23657;-78
2022/07/01 05:30:39;;;;;;;15.80;8.40;;;;;;;25.94;56.30;100025.75;110922;1251;23578;-81
2022/07/01 05:33:10;;;;;;;10.80;8.20;;;;;;;26.10;55.86;100029.67;110730;1251;23526;-78
2022/07/01 05:35:39;;;;;;;13.40;9.10;;;;;;;26.20;55.25;100030.59;110626;1254;21992;-78
2022/07/01 05:38:08;;;;;;;13.70;8.70;;;;;;;26.30;55.24;100028.05;110630;1251;23127;-79
2022/07/01 05:40:39;;;;;;;13.60;9.20;;;;;;;26.44;55.03;100026.89;110763;1251;21970;-80
2022/07/01 05:43:10;;;;;;;12.60;8.80;;;;;;;26.64;54.92;100025.36;110478;1257;23600;-81
2022/07/01 05:45:41;;;;;;;12.50;7.80;;;;;;;26.88;54.72;100027.08;110250;1255;23670;-78
2022/07/01 05:48:11;;;;;;;15.30;9.20;;;;;;;27.12;54.08;100025.02;110499;1254;23580;-79
2022/07/01 05:50:40;;;;;;;13.50;8.60;;;;;;;27.35;53.23;100022.55;111036;1253;22086;-80
2022/07/01 05:53:09;;;;;;;13.40;8.30;;;;;;;27.51;52.34;100021.13;110479;1247;253234;-78
2022/07/01 05:55:40;;;;;;;17.10;8.90;;;;;;;27.71;52.43;100016.17;111110;1247;24730;-77
2022/07/01 05:58:13;;;;;;;13.70;7.70;;;;;;;27.94;51.84;100012.59;110567;1252;21977;-79
2022/07/01 06:00:43;;;;;;;10.40;7.90;;;;;;;28.21;51.36;100018.16;110520;1251;22033;-78
2022/07/01 06:03:14;;;;;;;10.50;7.70;;;;;;;28.43;50.29;100021.07;110566;1254;22025;-78
2022/07/01 06:05:44;;;;;;;11.60;7.90;;;;;;;28.63;49.94;100010.38;110585;1251;22060;-78
2022/07/01 06:08:13;;;;;;;11.10;7.80;;;;;;;28.86;49.51;100011.85;110709;1251;23062;-78
2022/07/01 06:10:42;;;;;;;10.70;8.20;;;;;;;29.10;48.71;100013.05;110540;1254;22033;-80
2022/07/01 06:13:14;;;;;;;13.90;8.70;;;;;;;29.29;47.92;100013.95;110513;1254;21965;-78
2022/07/01 06:15:43;;;;;;;14.60;8.70;;;;;;;29.47;47.18;100015.57;110657;1247;23672;-78
2022/07/01 06:18:12;;;;;;;11.60;8.20;;;;;;;29.54;46.72;100009.16;110910;1245;24383;-77
2022/07/01 06:20:41;;;;;;;8.60;7.70;;;;;;;29.52;46.63;100004.59;111134;1244;23734;-79
2022/07/01 06:23:10;;;;;;;21.80;8.80;;;;;;;29.57;46.43;100011.64;111693;1241;21941;-77
2022/07/01 06:25:39;;;;;;;8.70;7.30;;;;;;;29.81;46.93;100012.03;111615;1241;21946;-78
2022/07/01 06:28:08;;;;;;;12.40;8.10;;;;;;;30.06;45.66;100014.55;111580;1241;21958;-78
2022/07/01 06:30:38;;;;;;;11.80;7.80;;;;;;;30.15;45.63;100017.36;111528;1241;23574;-78
2022/07/01 06:33:07;;;;;;;13.40;8.70;;;;;;;30.32;45.24;100019.61;111500;1241;22020;-77
2022/07/01 06:35:36;;;;;;;11.50;9.00;;;;;;;30.42;44.62;100014.64;111602;1241;21949;-77
2022/07/01 06:38:05;;;;;;;12.10;9.20;;;;;;;30.46;44.15;100016.02;111803;1244;23072;-78
2022/07/01 06:40:34;;;;;;;9.60;8.20;;;;;;;30.43;43.97;100015.86;111394;1241;22118;-79
2022/07/01 06:43:03;;;;;;;11.00;7.40;;;;;;;30.47;44.50;100010.61;111690;1241;22833;-77
2022/07/01 06:45:34;;;;;;;14.60;8.30;;;;;;;30.75;44.87;100009.99;111641;1241;22906;-78
2022/07/01 06:48:03;;;;;;;10.40;8.70;;;;;;;31.06;43.97;100017.50;111680;1241;22055;-77
2022/07/01 06:50:32;;;;;;;12.20;8.20;;;;;;;31.19;43.18;100020.94;111654;1241;22488;-78
2022/07/01 06:53:01;;;;;;;9.80;8.70;;;;;;;31.21;42.64;100021.68;111694;1241;21913;-79
2022/07/01 06:55:32;;;;;;;14.10;8.80;;;;;;;31.14;42.58;100017.89;111630;1241;23661;-77
2022/07/01 06:58:01;;;;;;;12.80;8.80;;;;;;;31.16;43.49;100015.59;111539;1241;21959;-78
2022/07/01 07:00:30;;;;;;;12.10;8.80;;;;;;;31.38;43.00;100009.20;111651;1241;23652;-77
2022/07/01 07:02:59;;;;;;;10.60;8.50;;;;;;;31.66;42.77;100005.70;111425;1247;21959;-79
2022/07/01 07:05:30;;;;;;;15.50;8.90;;;;;;;31.90;41.91;100007.80;111336;1247;21960;-78
2022/07/01 07:07:59;;;;;;;16.40;9.10;;;;;;;32.09;41.66;100003.30;110955;1247;21988;-78
2022/07/01 07:10:32;;;;;;;9.70;8.50;;;;;;;32.30;41.00;100009.64;111091;1248;21946;-78
2022/07/01 07:13:01;;;;;;;10.90;8.60;;;;;;;32.39;40.64;100011.61;110892;1248;22017;-78
2022/07/01 07:15:30;;;;;;;10.20;8.90;;;;;;;32.56;41.07;100012.88;111275;1247;24363;-78
2022/07/01 07:17:59;;;;;;;12.30;7.70;;;;;;;32.82;40.51;100014.87;110689;1251;22417;-79
2022/07/01 07:20:31;;;;;;;12.00;9.00;;;;;;;32.98;40.04;100013.92;110750;1246;22043;-78
2022/07/01 07:23:00;;;;;;;13.90;8.60;;;;;;;33.24;40.53;100015.07;111021;1247;22979;-79
2022/07/01 07:25:29;;;;;;;14.80;9.20;;;;;;;33.58;39.89;100016.48;110933;1248;23584;-78
2022/07/01 07:28:00;;;;;;;12.20;9.00;;;;;;;33.77;38.66;100013.02;111043;1247;23663;-79
2022/07/01 07:30:30;;;;;;;10.70;8.70;;;;;;;33.88;38.51;100012.03;110895;1250;22000;-78
2022/07/01 07:32:59;;;;;;;10.70;9.70;;;;;;;34.01;37.99;100008.02;110603;1249;21967;-77
2022/07/01 07:35:30;;;;;;;10.60;9.30;;;;;;;34.06;37.63;100003.84;111105;1244;21957;-79
2022/07/01 07:37:59;;;;;;;10.90;9.80;;;;;;;34.15;37.67;100002.45;111617;1243;24267;-78
2022/07/01 07:40:28;;;;;;;14.10;10.20;;;;;;;34.27;37.08;100003.99;111439;1243;24381;-77
2022/07/01 07:42:57;;;;;;;13.20;9.50;;;;;;;34.24;36.58;100004.45;111444;1244;22747;-80
2022/07/01 07:45:26;;;;;;;12.00;9.50;;;;;;;34.24;37.08;100001.92;111450;1244;21973;-78
2022/07/01 07:47:55;;;;;;;13.60;10.70;;;;;;;34.39;37.17;100002.06;111059;1248;21958;-79
2022/07/01 07:50:24;;;;;;;12.90;9.90;;;;;;;34.53;36.57;100002.60;110971;1246;23593;-79
2022/07/01 07:52:54;;;;;;;14.00;10.40;;;;;;;34.73;36.34;100001.21;110962;1250;21949;-78
2022/07/01 07:55:23;;;;;;;12.70;10.10;;;;;;;34.89;35.69;100003.95;111076;1247;22104;-79
2022/07/01 07:57:52;;;;;;;12.90;10.00;;;;;;;35.00;35.85;99997.23;111263;1247;22063;-78
2022/07/01 08:00:21;;;;;;;13.20;10.50;;;;;;;35.14;35.61;99998.14;110993;1247;23672;-79
2022/07/01 08:02:51;;;;;;;13.80;9.50;;;;;;;35.32;35.79;99992.77;111085;1246;22021;-77
2022/07/01 08:05:20;;;;;;;12.10;10.40;;;;;;;35.49;35.41;99994.66;111334;1244;21952;-78
2022/07/01 08:07:49;;;;;;;11.20;10.10;;;;;;;35.63;34.94;99995.98;111442;1241;22050;-78
2022/07/01 08:10:18;;;;;;;12.30;9.70;;;;;;;35.82;35.06;99995.06;111605;1241;22402;-78
2022/07/01 08:12:48;;;;;;;11.20;9.80;;;;;;;35.93;34.14;99996.35;111638;1241;23761;-78
2022/07/01 08:15:17;;;;;;;14.40;9.80;;;;;;;35.86;33.86;99997.40;111423;1240;23017;-79
2022/07/01 08:17:47;;;;;;;13.00;10.20;;;;;;;35.78;34.23;99991.43;111496;1241;23008;-79
2022/07/01 08:20:18;;;;;;;12.70;9.90;;;;;;;35.88;34.66;99989.70;111619;1241;22209;-79
2022/07/01 08:22:52;;;;;;;14.90;10.00;;;;;;;36.01;34.26;99985.22;111484;1241;23694;-79
2022/07/01 08:25:21;;;;;;;11.70;9.60;;;;;;;36.15;34.43;99981.63;110909;1248;24899;-80
2022/07/01 08:27:50;;;;;;;14.70;10.50;;;;;;;36.24;34.13;99980.88;111048;1249;23074;-78
2022/07/01 08:30:19;;;;;;;16.30;9.40;;;;;;;36.33;34.15;99983.63;110430;1256;21979;-79
2022/07/01 08:32:49;;;;;;;13.50;10.90;;;;;;;36.43;33.87;99984.14;110377;1255;21971;-79
2022/07/01 08:35:18;;;;;;;12.00;10.30;;;;;;;36.55;33.67;99983.46;110554;1254;22386;-78
2022/07/01 08:37:47;;;;;;;10.80;9.10;;;;;;;36.55;33.64;99984.34;110312;1257;22069;-79
2022/07/01 08:40:16;;;;;;;11.20;10.00;;;;;;;36.64;33.59;99983.73;110244;1257;21972;-79
2022/07/01 08:42:45;;;;;;;10.90;9.80;;;;;;;36.75;33.51;99984.87;110185;1255;22123;-79
2022/07/01 08:45:15;;;;;;;11.40;10.20;;;;;;;36.84;33.04;99986.70;110509;1254;23687;-79
2022/07/01 08:47:57;;;;;;;13.60;10.00;;;;;;;36.82;32.83;99986.16;110628;1251;22454;-80
2022/07/01 08:50:31;;;;;;;15.90;10.60;;;;;;;36.76;32.76;99984.59;110574;1254;21951;-78
2022/07/01 08:53:01;;;;;;;13.40;9.60;;;;;;;36.68;33.06;99981.00;110323;1257;23613;-79
2022/07/01 08:55:31;;;;;;;10.30;8.80;;;;;;;36.67;33.19;99978.45;110327;1254;22052;-80
2022/07/01 08:58:01;;;;;;;14.10;9.70;;;;;;;36.75;32.80;99982.54;110415;1260;21991;-79
2022/07/01 09:00:33;;;;;;;14.20;9.30;;;;;;;36.95;33.16;99986.67;110170;1258;23168;-79
2022/07/01 09:03:03;;;;;;;16.80;9.90;;;;;;;37.17;32.31;99987.33;110128;1260;23018;-79
2022/07/01 09:05:33;;;;;;;10.90;9.50;;;;;;;37.24;31.34;99991.04;110172;1257;23726;-78
2022/07/01 09:08:05;;;;;;;13.50;9.40;;;;;;;37.14;31.37;99991.80;109876;1253;23169;-78
2022/07/01 09:10:35;;;;;;;10.90;8.90;;;;;;;37.11;31.94;99993.55;110841;1247;23551;-79
2022/07/01 09:13:07;;;;;;;9.60;8.70;;;;;;;37.25;32.28;99995.15;111107;1247;21950;-79
2022/07/01 09:15:41;;;;;;;14.40;8.30;;;;;;;37.36;31.31;99997.39;111239;1242;23003;-78
2022/07/01 09:18:15;;;;;;;11.00;9.20;;;;;;;37.40;31.27;99997.55;111548;1241;22463;-78
2022/07/01 09:20:50;;;;;;;13.80;9.20;;;;;;;37.49;31.43;100000.93;111559;1241;23607;-78
2022/07/01 09:23:19;;;;;;;13.30;9.00;;;;;;;37.53;31.21;99997.48;110958;1248;21962;-79
2022/07/01 09:25:51;;;;;;;9.50;8.60;;;;;;;37.64;31.41;100000.67;110909;1247;22114;-78
2022/07/01 09:28:25;;;;;;;12.80;8.80;;;;;;;37.81;31.06;99999.14;110983;1248;23038;-77
2022/07/01 09:30:58;;;;;;;14.40;9.00;;;;;;;37.95;31.14;99988.84;110535;1254;21980;-78
2022/07/01 09:33:29;;;;;;;12.00;8.10;;;;;;;38.16;30.72;99986.29;110525;1254;22072;-78
2022/07/01 09:35:59;;;;;;;8.60;7.80;;;;;;;38.29;30.18;99983.53;110274;1254;23726;-76
2022/07/01 09:38:28;;;;;;;13.00;7.60;;;;;;;38.36;30.10;99982.30;110331;1255;21974;-77
2022/07/01 09:41:03;;;;;;;12.30;8.70;;;;;;;38.41;29.38;99981.61;110310;1254;21987;-77
2022/07/01 09:43:35;;;;;;;11.50;8.00;;;;;;;38.36;29.22;99981.34;109813;1260;22335;-78
2022/07/01 09:46:09;;;;;;;10.10;7.40;;;;;;;38.27;29.19;99982.65;110146;1257;23616;-76
2022/07/01 09:48:38;;;;;;;9.60;7.10;;;;;;;38.18;29.21;99980.50;110358;1249;22985;-78
2022/07/01 09:51:10;;;;;;;11.60;7.60;;;;;;;38.08;29.60;99975.25;110566;1251;21989;-78
2022/07/01 09:53:43;;;;;;;7.80;6.50;;;;;;;38.04;29.25;99971.06;110831;1249;22100;-77
2022/07/01 09:56:12;;;;;;;12.90;7.30;;;;;;;37.99;28.81;99969.14;110800;1249;23101;-78
2022/07/01 09:58:42;;;;;;;8.90;7.10;;;;;;;37.94;28.99;99969.92;110858;1249;23020;-75
2022/07/01 10:01:15;;;;;;;9.70;7.10;;;;;;;37.88;29.14;99974.98;110431;1249;21964;-79
2022/07/01 10:03:45;;;;;;;10.10;6.60;;;;;;;37.78;29.13;99978.92;111008;1247;21964;-77
2022/07/01 10:06:36;;;;;;;;;;;;;;;37.70;29.44;99977.09;111315;1247;22011;-77
2022/07/01 10:09:45;;;;;;;9.50;7.20;;;;;;;37.60;29.72;99976.16;111003;1246;22069;-77
2022/07/01 10:12:34;;;;;;;9.50;7.50;;;;;;;37.65;30.15;99976.20;111044;1248;22017;-78
2022/07/01 10:15:07;;;;;;;10.50;7.50;;;;;;;37.66;29.72;99976.54;110981;1247;23590;-78
2022/07/01 10:17:43;;;;;;;9.40;7.90;;;;;;;37.61;29.90;99973.27;111009;1248;21976;-77
2022/07/01 10:20:19;;;;;;;8.10;7.30;;;;;;;37.63;30.29;99966.55;110988;1248;21981;-77
2022/07/01 10:23:03;;;;;;;14.60;8.80;;;;;;;37.79;30.28;99963.83;111053;1248;22756;-78
2022/07/01 10:25:51;;;;;;;11.90;7.50;;;;;;;37.80;29.94;99963.36;111176;1241;23625;-77
2022/07/01 10:28:45;;;;;;;12.60;8.30;;;;;;;37.69;29.91;99961.86;111861;1240;23811;-78
2022/07/01 10:31:18;;;;;;;10.30;7.20;;;;;;;37.60;30.20;99960.03;111861;1241;22028;-78
2022/07/01 10:33:57;;;;;;;7.50;6.80;;;;;;;37.51;30.22;99956.58;111395;1241;21956;-77
2022/07/01 10:36:33;;;;;;;10.40;7.60;;;;;;;37.31;30.30;99950.36;111631;1241;23811;-78
2022/07/01 10:42:03;;;;;;;11.30;7.20;;;;;;;36.89;30.57;99942.86;111327;1247;21996;-77
2022/07/01 10:45:10;;;;;;;10.30;8.00;;;;;;;36.62;31.10;99935.10;111014;1247;22446;-78
2022/07/01 10:47:40;;;;;;;9.70;7.00;;;;;;;36.47;31.65;99935.46;110608;1252;21968;-78
2022/07/01 10:50:16;;;;;;;9.90;6.60;;;;;;;36.41;31.77;99936.95;110813;1254;21960;-77
2022/07/01 10:53:01;;;;;;;8.50;7.60;;;;;;;36.34;31.87;99938.09;110473;1254;21972;-78
2022/07/01 10:55:44;;;;;;;12.30;7.60;;;;;;;36.37;32.31;99936.59;110386;1252;22026;-79
2022/07/01 10:58:20;;;;;;;9.70;6.90;;;;;;;36.35;31.90;99937.55;110888;1252;21982;-78
2022/07/01 11:01:03;;;;;;;10.90;7.90;;;;;;;36.23;31.84;99932.59;111118;1252;22728;-78
2022/07/01 11:03:47;;;;;;;12.80;7.90;;;;;;;36.13;31.89;99926.81;111139;1252;21974;-77
2022/07/01 11:06:38;;;;;;;12.80;7.20;;;;;;;36.05;31.87;99920.55;110576;1254;21981;-77
2022/07/01 11:09:22;;;;;;;12.10;7.00;;;;;;;35.80;31.70;99919.80;111196;1255;23592;-78
2022/07/01 11:11:54;;;;;;;11.00;7.70;;;;;;;35.60;32.13;99918.87;110306;1260;22113;-78
2022/07/01 11:14:47;;;;;;;14.20;9.20;;;;;;;35.47;32.32;99913.00;110496;1259;22049;-77
2022/07/01 11:17:18;;;;;;;18.50;10.00;;;;;;;35.30;32.64;99905.82;110418;1260;21970;-79
2022/07/01 11:19:49;;;;;;;12.40;8.90;;;;;;;35.11;33.40;99904.41;109780;1260;23204;-78
2022/07/01 11:22:30;;;;;;;13.40;9.20;;;;;;;35.07;33.55;99898.85;110493;1260;23586;-78
2022/07/01 11:25:07;;;;;;;12.30;9.20;;;;;;;35.04;33.86;99898.29;109869;1260;21975;-79
2022/07/01 11:27:40;;;;;;;11.70;8.40;;;;;;;35.04;33.89;99893.58;110109;1260;22305;-86
2022/07/01 11:30:26;;;;;;;8.00;7.10;;;;;;;35.06;33.64;99890.55;110660;1254;22751;-84
2022/07/01 11:32:59;;;;;;;8.20;7.20;;;;;;;35.11;33.39;99885.66;110143;1260;21992;-82
2022/07/01 11:41:25;;;;;;;11.70;7.30;;;;;;;35.28;32.77;99891.98;109966;1264;22214;-83
2022/07/01 11:44:04;;;;;;;7.90;6.60;;;;;;;35.28;32.26;99892.38;110069;1260;23721;-83
2022/07/01 11:46:38;;;;;;;12.90;7.30;;;;;;;35.28;32.25;99899.30;110360;1260;21986;-84
2022/07/01 11:49:17;;;;;;;9.50;7.20;;;;;;;35.26;32.52;99900.64;110374;1260;22934;-84
2022/07/01 11:52:32;;;;;;;7.80;7.00;;;;;;;35.30;32.62;99898.27;111039;1254;22903;-78
2022/07/01 11:55:10;;;;;;;7.80;5.70;;;;;;;35.36;32.40;99894.73;110202;1260;22066;-80
2022/07/01 11:58:06;;;;;;;13.60;6.70;;;;;;;35.35;31.67;99891.67;110881;1254;21942;-84
2022/07/01 12:00:42;;;;;;;12.90;6.90;;;;;;;35.32;31.63;99897.77;110509;1254;23622;-85